createdAt,value
2019-01-17T00:00:54.863Z,33.15
2019-01-17T00:02:03.826Z,33.25
2019-01-17T00:03:13.296Z,33.25
2019-01-17T00:04:22.978Z,33.34
2019-01-17T00:05:32.149Z,33.34
2019-01-17T00:06:41.359Z,33.23
2019-01-17T00:07:50.527Z,33.25
2019-01-17T00:08:59.948Z,33.23
2019-01-17T00:10:09.144Z,33.23
2019-01-17T00:11:18.066Z,33.42
2019-01-17T00:12:27.477Z,33.33
2019-01-17T00:13:36.889Z,33.23
2019-01-17T00:14:46.062Z,33.13
2019-01-17T00:15:55.727Z,33.42
2019-01-17T00:17:05.132Z,33.13
2019-01-17T00:18:13.815Z,33.33
2019-01-17T00:19:23.066Z,33.23
2019-01-17T00:20:32.773Z,33.13
2019-01-17T00:21:42.436Z,32.94
2019-01-17T00:22:51.357Z,32.94
2019-01-17T00:24:04.869Z,33.03
2019-01-17T00:25:14.054Z,33.13
2019-01-17T00:26:23.228Z,33.13
2019-01-17T00:27:32.155Z,32.94
2019-01-17T00:28:41.111Z,33.03
2019-01-17T00:29:50.789Z,33.03
2019-01-17T00:31:00.216Z,33.13
2019-01-17T00:32:09.642Z,33.13
2019-01-17T00:33:19.076Z,33.13
2019-01-17T00:34:28.527Z,33.03
2019-01-17T00:35:37.956Z,33.03
2019-01-17T00:36:47.622Z,33.13
2019-01-17T00:37:57.038Z,33.13
2019-01-17T00:39:06.514Z,33.13
2019-01-17T00:40:15.720Z,32.94
2019-01-17T00:41:24.650Z,32.94
2019-01-17T00:42:34.084Z,33.13
2019-01-17T00:43:43.264Z,33.23
2019-01-17T00:44:53.217Z,33.13
2019-01-17T00:46:02.393Z,33.03
2019-01-17T00:47:12.072Z,32.94
2019-01-17T00:48:21.284Z,33.13
2019-01-17T00:49:30.450Z,33.03
2019-01-17T00:50:39.957Z,33.03
2019-01-17T00:51:48.631Z,33.03
2019-01-17T00:52:57.831Z,33.23
2019-01-17T00:54:11.547Z,33.13
2019-01-17T00:55:20.970Z,33.23
2019-01-17T00:56:30.088Z,33.21
2019-01-17T00:57:38.753Z,33.13
2019-01-17T00:58:48.415Z,33.03
2019-01-17T00:59:57.674Z,33.03
2019-01-17T01:01:06.868Z,33.12
2019-01-17T01:02:16.545Z,33.12
2019-01-17T01:03:26.000Z,33.13
2019-01-17T01:04:35.430Z,33.03
2019-01-17T01:05:44.893Z,32.92
2019-01-17T01:06:54.063Z,33.02
2019-01-17T01:08:03.240Z,33.21
2019-01-17T01:09:12.150Z,33.12
2019-01-17T01:10:21.598Z,33.12
2019-01-17T01:11:31.274Z,33.12
2019-01-17T01:12:40.687Z,33.21
2019-01-17T01:13:50.110Z,33.21
2019-01-17T01:14:59.042Z,33.21
2019-01-17T01:16:08.514Z,33.12
2019-01-17T01:17:17.941Z,33.12
2019-01-17T01:18:26.667Z,32.92
2019-01-17T01:19:36.085Z,33.12
2019-01-17T01:20:46.036Z,33.12
2019-01-17T01:21:54.969Z,33.21
2019-01-17T01:23:04.172Z,33.12
2019-01-17T01:24:17.891Z,32.92
2019-01-17T01:25:27.074Z,33.12
2019-01-17T01:26:36.515Z,33.12
2019-01-17T01:27:45.436Z,33.02
2019-01-17T01:28:54.619Z,33.12
2019-01-17T01:30:03.824Z,33.21
2019-01-17T01:31:13.495Z,33.12
2019-01-17T01:32:23.176Z,33.12
2019-01-17T01:33:32.339Z,33.12
2019-01-17T01:34:41.527Z,33.12
2019-01-17T01:35:50.726Z,33.12
2019-01-17T01:36:59.658Z,33.12
2019-01-17T01:38:08.576Z,33.12
2019-01-17T01:39:17.756Z,33.12
2019-01-17T01:40:27.182Z,32.92
2019-01-17T01:41:36.360Z,33.12
2019-01-17T01:42:45.571Z,33.12
2019-01-17T01:43:55.008Z,33.21
2019-01-17T01:45:04.217Z,33.02
2019-01-17T01:46:13.387Z,33.21
2019-01-17T01:47:22.315Z,33.02
2019-01-17T01:48:32.260Z,33.02
2019-01-17T01:49:41.456Z,33.21
2019-01-17T01:50:50.652Z,33.21
2019-01-17T01:51:59.885Z,33.21
2019-01-17T01:53:09.313Z,33.21
2019-01-17T01:54:24.463Z,33.12
2019-01-17T01:55:33.681Z,33.02
2019-01-17T01:56:42.862Z,33.21
2019-01-17T01:57:51.825Z,33.12
2019-01-17T01:59:01.511Z,33.12
2019-01-17T02:00:10.956Z,32.92
2019-01-17T02:01:20.149Z,33.02
2019-01-17T02:02:29.348Z,32.92
2019-01-17T02:03:38.546Z,33.02
2019-01-17T02:04:47.976Z,33.12
2019-01-17T02:05:57.424Z,33.21
2019-01-17T02:07:06.601Z,32.92
2019-01-17T02:08:16.052Z,32.92
2019-01-17T02:09:25.737Z,33.02
2019-01-17T02:10:34.457Z,33.02
2019-01-17T02:11:44.203Z,33.12
2019-01-17T02:12:53.906Z,33.21
2019-01-17T02:14:03.605Z,33.12
2019-01-17T02:15:12.774Z,33.02
2019-01-17T02:16:21.739Z,32.92
2019-01-17T02:17:31.181Z,33.12
2019-01-17T02:18:40.358Z,33.21
2019-01-17T02:19:50.313Z,33.12
2019-01-17T02:20:59.737Z,33.2
2019-01-17T02:22:09.430Z,33.12
2019-01-17T02:23:18.384Z,33.12
2019-01-17T02:24:31.071Z,33.12
2019-01-17T02:25:40.503Z,33.12
2019-01-17T02:26:50.160Z,33.21
2019-01-17T02:27:59.339Z,33.12
2019-01-17T02:29:08.782Z,33.1
2019-01-17T02:30:18.212Z,33.2
2019-01-17T02:31:27.705Z,33.1
2019-01-17T02:32:36.934Z,33.2
2019-01-17T02:33:46.124Z,33.1
2019-01-17T02:34:55.594Z,33.1
2019-01-17T02:36:05.395Z,33.1
2019-01-17T02:37:15.072Z,33.2
2019-01-17T02:38:24.246Z,33.2
2019-01-17T02:39:33.688Z,33.2
2019-01-17T02:40:43.356Z,33.21
2019-01-17T02:41:52.798Z,33.12
2019-01-17T02:43:02.742Z,32.92
2019-01-17T02:44:12.189Z,33.1
2019-01-17T02:45:21.864Z,33
2019-01-17T02:46:31.785Z,33.02
2019-01-17T02:47:41.751Z,33
2019-01-17T02:48:51.170Z,33
2019-01-17T02:50:00.917Z,33.1
2019-01-17T02:51:10.607Z,33
2019-01-17T02:52:20.058Z,33
2019-01-17T02:53:30.038Z,33
2019-01-17T02:54:38.957Z,33
2019-01-17T02:55:48.141Z,33
2019-01-17T02:56:57.325Z,33
2019-01-17T02:58:06.499Z,33
2019-01-17T02:59:15.700Z,33
2019-01-17T03:00:25.124Z,33
2019-01-17T03:01:34.094Z,33
2019-01-17T03:02:43.289Z,33
2019-01-17T03:03:52.744Z,33
2019-01-17T03:05:02.705Z,33.1
2019-01-17T03:06:11.917Z,33
2019-01-17T03:07:21.592Z,33
2019-01-17T03:08:31.317Z,32.9
2019-01-17T03:09:41.277Z,33.1
2019-01-17T03:10:50.999Z,33
2019-01-17T03:12:00.677Z,32.9
2019-01-17T03:13:09.867Z,33
2019-01-17T03:14:19.309Z,33
2019-01-17T03:15:28.549Z,33
2019-01-17T03:16:37.731Z,33.1
2019-01-17T03:17:47.173Z,33.1
2019-01-17T03:18:56.867Z,33.1
2019-01-17T03:20:06.339Z,33.1
2019-01-17T03:21:15.804Z,33.2
2019-01-17T03:22:25.481Z,33.1
2019-01-17T03:23:34.660Z,33.1
2019-01-17T03:24:45.565Z,33.1
2019-01-17T03:25:55.000Z,33.39
2019-01-17T03:27:03.948Z,33.2
2019-01-17T03:28:13.118Z,33.29
2019-01-17T03:29:22.784Z,33.29
2019-01-17T03:30:32.457Z,33.39
2019-01-17T03:31:42.421Z,33.2
2019-01-17T03:32:52.402Z,33.29
2019-01-17T03:34:01.676Z,33.29
2019-01-17T03:35:10.848Z,33.39
2019-01-17T03:36:20.283Z,33.1
2019-01-17T03:37:29.968Z,33.2
2019-01-17T03:38:39.130Z,33.29
2019-01-17T03:39:48.559Z,33.39
2019-01-17T03:40:57.994Z,33.29
2019-01-17T03:42:06.942Z,33.2
2019-01-17T03:43:16.373Z,33.39
2019-01-17T03:44:26.018Z,33.2
2019-01-17T03:45:35.499Z,33.2
2019-01-17T03:46:45.187Z,33.48
2019-01-17T03:47:54.640Z,33.2
2019-01-17T03:49:03.820Z,33.2
2019-01-17T03:50:12.756Z,33.29
2019-01-17T03:51:21.940Z,33.29
2019-01-17T03:52:31.630Z,33.2
2019-01-17T03:53:41.076Z,33.2
2019-01-17T03:54:56.058Z,33.48
2019-01-17T03:56:05.544Z,33.2
2019-01-17T03:57:15.222Z,33.2
2019-01-17T03:58:24.390Z,33.39
2019-01-17T03:59:33.831Z,33.2
2019-01-17T04:00:43.286Z,33.39
2019-01-17T04:01:52.993Z,33.39
2019-01-17T04:03:02.193Z,33.39
2019-01-17T04:04:11.628Z,33.2
2019-01-17T04:05:21.302Z,33.39
2019-01-17T04:06:30.227Z,33.29
2019-01-17T04:07:39.422Z,33.1
2019-01-17T04:08:48.839Z,33.29
2019-01-17T04:09:58.319Z,33.39
2019-01-17T04:11:08.053Z,33.39
2019-01-17T04:12:17.741Z,33.29
2019-01-17T04:13:26.441Z,33.29
2019-01-17T04:14:36.109Z,33.29
2019-01-17T04:15:45.550Z,33.2
2019-01-17T04:16:54.736Z,33.2
2019-01-17T04:18:04.163Z,33.2
2019-01-17T04:19:13.353Z,33.2
2019-01-17T04:20:22.795Z,33.2
2019-01-17T04:21:32.708Z,33.1
2019-01-17T04:22:42.420Z,33.29
2019-01-17T04:23:51.357Z,33.1
2019-01-17T04:25:01.085Z,33.29
2019-01-17T04:26:10.553Z,33.29
2019-01-17T04:27:20.256Z,33.29
2019-01-17T04:28:29.694Z,33.39
2019-01-17T04:29:39.136Z,33.28
2019-01-17T04:30:48.573Z,33.2
2019-01-17T04:31:58.290Z,33.39
2019-01-17T04:33:07.712Z,33.2
2019-01-17T04:34:17.395Z,33.29
2019-01-17T04:35:26.568Z,33.29
2019-01-17T04:36:35.995Z,33.29
2019-01-17T04:37:45.428Z,33.2
2019-01-17T04:38:55.350Z,33.2
2019-01-17T04:40:04.286Z,33.2
2019-01-17T04:41:13.715Z,33.2
2019-01-17T04:42:22.886Z,33.39
2019-01-17T04:43:32.564Z,33.48
2019-01-17T04:44:41.996Z,33.18
2019-01-17T04:45:51.191Z,33.48
2019-01-17T04:47:00.361Z,33.2
2019-01-17T04:48:10.042Z,33.2
2019-01-17T04:49:19.213Z,33.2
2019-01-17T04:50:28.419Z,33.18
2019-01-17T04:51:37.595Z,33.2
2019-01-17T04:52:47.053Z,33.2
2019-01-17T04:53:56.275Z,33.18
2019-01-17T04:55:07.710Z,33.39
2019-01-17T04:56:17.144Z,33.18
2019-01-17T04:57:26.590Z,33.2
2019-01-17T04:58:36.275Z,33.2
2019-01-17T04:59:45.751Z,33.2
2019-01-17T05:00:55.445Z,33.2
2019-01-17T05:02:04.639Z,33.29
2019-01-17T05:03:14.081Z,33.2
2019-01-17T05:04:23.011Z,33.2
2019-01-17T05:05:32.458Z,33.2
2019-01-17T05:06:41.965Z,33.28
2019-01-17T05:07:51.407Z,33.2
2019-01-17T05:09:01.086Z,33.18
2019-01-17T05:10:10.524Z,33.18
2019-01-17T05:11:20.276Z,33.18
2019-01-17T05:12:29.972Z,33.29
2019-01-17T05:13:39.681Z,33.29
2019-01-17T05:14:49.345Z,33.29
2019-01-17T05:15:58.541Z,33.18
2019-01-17T05:17:07.468Z,32.98
2019-01-17T05:18:17.131Z,33.2
2019-01-17T05:19:26.571Z,33
2019-01-17T05:20:36.260Z,33.18
2019-01-17T05:21:45.461Z,33.18
2019-01-17T05:22:55.125Z,32.89
2019-01-17T05:24:04.335Z,32.81
2019-01-17T05:25:15.198Z,32.9
2019-01-17T05:26:24.394Z,32.9
2019-01-17T05:27:33.579Z,33.1
2019-01-17T05:28:43.517Z,32.89
2019-01-17T05:29:53.481Z,33.18
2019-01-17T05:31:02.682Z,32.98
2019-01-17T05:32:12.064Z,33.28
2019-01-17T05:33:21.517Z,32.89
2019-01-17T05:34:30.693Z,32.89
2019-01-17T05:35:46.617Z,32.89
2019-01-17T05:36:56.074Z,32.89
2019-01-17T05:38:05.026Z,32.98
2019-01-17T05:39:14.700Z,32.98
2019-01-17T05:40:23.366Z,33.08
2019-01-17T05:41:32.286Z,33.18
2019-01-17T05:42:41.721Z,33.08
2019-01-17T05:43:50.936Z,33.18
2019-01-17T05:45:00.224Z,33.18
2019-01-17T05:46:09.934Z,33.18
2019-01-17T05:47:19.597Z,33.28
2019-01-17T05:48:28.762Z,33.28
2019-01-17T05:49:38.182Z,33.28
2019-01-17T05:50:47.618Z,33.28
2019-01-17T05:51:57.048Z,33.37
2019-01-17T05:53:06.541Z,33.37
2019-01-17T05:54:16.230Z,33.37
2019-01-17T05:55:25.676Z,33.37
2019-01-17T05:56:35.145Z,33.37
2019-01-17T05:57:44.590Z,33.37
2019-01-17T05:58:53.775Z,33.47
2019-01-17T06:00:03.488Z,33.37
2019-01-17T06:01:12.908Z,33.47
2019-01-17T06:02:22.653Z,33.37
2019-01-17T06:03:31.370Z,33.37
2019-01-17T06:05:09.238Z,33.37
2019-01-17T06:06:18.030Z,33.37
2019-01-17T06:07:28.016Z,33.37
2019-01-17T06:08:37.319Z,33.37
2019-01-17T06:09:46.058Z,33.18
2019-01-17T06:10:55.591Z,33.18
2019-01-17T06:12:05.111Z,33.08
2019-01-17T06:13:14.231Z,32.98
2019-01-17T06:14:23.002Z,32.98
2019-01-17T06:15:32.069Z,33.08
2019-01-17T06:16:40.854Z,32.98
2019-01-17T06:17:50.108Z,32.89
2019-01-17T06:18:59.129Z,32.89
2019-01-17T06:20:08.655Z,32.89
2019-01-17T06:21:17.951Z,33.18
2019-01-17T06:22:27.460Z,33.18
2019-01-17T06:23:36.995Z,33.18
2019-01-17T06:24:45.805Z,33.18
2019-01-17T06:25:55.087Z,32.9
2019-01-17T06:27:04.091Z,32.89
2019-01-17T06:28:13.926Z,32.98
2019-01-17T06:29:23.313Z,32.98
2019-01-17T06:30:32.943Z,33
2019-01-17T06:31:42.006Z,32.89
2019-01-17T06:32:51.307Z,33.08
2019-01-17T06:34:00.578Z,32.89
2019-01-17T06:35:10.084Z,32.98
2019-01-17T06:36:20.143Z,32.98
2019-01-17T06:37:29.464Z,32.98
2019-01-17T06:38:40.131Z,33.08
2019-01-17T06:39:49.392Z,33.18
2019-01-17T06:40:59.173Z,33.08
2019-01-17T06:42:08.464Z,33.18
2019-01-17T06:43:17.745Z,33.08
2019-01-17T06:44:26.530Z,33.28
2019-01-17T06:45:36.188Z,33.28
2019-01-17T06:46:45.465Z,33.28
2019-01-17T06:47:54.635Z,33.28
2019-01-17T06:49:04.029Z,33.28
2019-01-17T06:50:13.324Z,33.28
2019-01-17T06:51:22.140Z,33.37
2019-01-17T06:52:31.188Z,33.37
2019-01-17T06:53:40.736Z,33.28
2019-01-17T06:54:50.067Z,33.18
2019-01-17T06:55:59.856Z,33.18
2019-01-17T06:57:09.211Z,33.18
2019-01-17T06:58:18.753Z,33.47
2019-01-17T06:59:28.308Z,33.56
2019-01-17T07:00:37.402Z,33.56
2019-01-17T07:01:46.965Z,33.28
2019-01-17T07:02:56.549Z,33.47
2019-01-17T07:04:06.185Z,33.18
2019-01-17T07:05:14.994Z,33.28
2019-01-17T07:06:25.709Z,32.98
2019-01-17T07:07:35.452Z,33.18
2019-01-17T07:08:44.980Z,33.18
2019-01-17T07:09:53.791Z,33
2019-01-17T07:11:03.177Z,32.71
2019-01-17T07:12:12.969Z,32.81
2019-01-17T07:13:22.364Z,32.52
2019-01-17T07:14:31.642Z,32.33
2019-01-17T07:15:41.182Z,32.34
2019-01-17T07:16:50.517Z,32.25
2019-01-17T07:17:59.833Z,32.06
2019-01-17T07:19:09.209Z,31.96
2019-01-17T07:20:18.569Z,31.87
2019-01-17T07:21:27.768Z,31.77
2019-01-17T07:22:36.840Z,31.69
2019-01-17T07:23:46.456Z,31.49
2019-01-17T07:24:55.360Z,31.59
2019-01-17T07:26:04.908Z,31.4
2019-01-17T07:27:14.241Z,31.49
2019-01-17T07:28:23.841Z,31.3
2019-01-17T07:29:32.675Z,31.41
2019-01-17T07:30:42.295Z,31.21
2019-01-17T07:31:51.852Z,31.22
2019-01-17T07:33:01.225Z,31.22
2019-01-17T07:34:11.201Z,31.22
2019-01-17T07:35:20.600Z,31.03
2019-01-17T07:36:29.492Z,31.12
2019-01-17T07:37:38.923Z,31.12
2019-01-17T07:38:48.747Z,31.03
2019-01-17T07:39:58.255Z,31.03
2019-01-17T07:41:07.360Z,30.94
2019-01-17T07:42:16.996Z,30.83
2019-01-17T07:43:25.928Z,30.94
2019-01-17T07:44:35.256Z,30.94
2019-01-17T07:45:44.069Z,30.85
2019-01-17T07:46:53.479Z,30.94
2019-01-17T07:48:02.836Z,30.85
2019-01-17T07:49:11.737Z,30.94
2019-01-17T07:50:21.162Z,30.76
2019-01-17T07:51:30.287Z,30.94
2019-01-17T07:52:39.213Z,31.14
2019-01-17T07:53:48.545Z,30.85
2019-01-17T07:54:58.263Z,31.14
2019-01-17T07:56:07.046Z,31.14
2019-01-17T07:57:17.086Z,31.24
2019-01-17T07:58:26.371Z,31.14
2019-01-17T07:59:35.724Z,31.14
2019-01-17T08:00:45.170Z,31.24
2019-01-17T08:01:54.575Z,31.14
2019-01-17T08:03:03.951Z,31.24
2019-01-17T08:04:15.013Z,31.24
2019-01-17T08:05:24.019Z,31.33
2019-01-17T08:06:33.650Z,31.22
2019-01-17T08:07:42.989Z,31.43
2019-01-17T08:08:52.447Z,31.43
2019-01-17T08:10:01.296Z,31.43
2019-01-17T08:11:10.648Z,31.52
2019-01-17T08:12:20.153Z,31.52
2019-01-17T08:13:29.533Z,31.51
2019-01-17T08:14:39.359Z,31.62
2019-01-17T08:15:48.673Z,31.51
2019-01-17T08:16:57.801Z,31.7
2019-01-17T08:18:07.609Z,31.6
2019-01-17T08:19:23.413Z,31.6
2019-01-17T08:20:33.221Z,31.51
2019-01-17T08:21:42.401Z,31.7
2019-01-17T08:22:51.690Z,31.7
2019-01-17T08:24:01.105Z,31.7
2019-01-17T08:25:10.131Z,31.7
2019-01-17T08:26:19.217Z,31.8
2019-01-17T08:27:28.889Z,31.9
2019-01-17T08:28:38.252Z,31.9
2019-01-17T08:29:47.630Z,32.09
2019-01-17T08:30:56.979Z,31.99
2019-01-17T08:32:06.596Z,31.9
2019-01-17T08:33:16.141Z,31.9
2019-01-17T08:34:30.764Z,31.99
2019-01-17T08:35:40.307Z,32.28
2019-01-17T08:36:50.222Z,32.09
2019-01-17T08:37:59.048Z,32.18
2019-01-17T08:39:08.378Z,32.38
2019-01-17T08:40:22.725Z,32.18
2019-01-17T08:41:32.018Z,32.09
2019-01-17T08:42:41.655Z,32.18
2019-01-17T08:43:51.193Z,32.18
2019-01-17T08:45:01.025Z,32.36
2019-01-17T08:46:10.086Z,32.36
2019-01-17T08:47:19.452Z,32.46
2019-01-17T08:48:29.042Z,32.26
2019-01-17T08:49:37.855Z,32.36
2019-01-17T08:50:47.161Z,32.56
2019-01-17T08:51:57.265Z,32.26
2019-01-17T08:53:07.221Z,32.36
2019-01-17T08:54:17.084Z,32.36
2019-01-17T08:55:26.501Z,32.56
2019-01-17T08:56:36.067Z,32.65
2019-01-17T08:57:45.084Z,32.65
2019-01-17T08:58:54.186Z,32.65
2019-01-17T09:00:04.007Z,32.65
2019-01-17T09:01:13.877Z,32.46
2019-01-17T09:02:23.162Z,32.36
2019-01-17T09:03:32.775Z,32.56
2019-01-17T09:04:42.065Z,32.36
2019-01-17T09:05:51.364Z,32.46
2019-01-17T09:07:00.891Z,32.56
2019-01-17T09:08:10.406Z,32.46
2019-01-17T09:09:19.662Z,32.56
2019-01-17T09:10:28.994Z,32.26
2019-01-17T09:11:38.278Z,32.26
2019-01-17T09:12:47.328Z,32.28
2019-01-17T09:13:56.209Z,31.99
2019-01-17T09:15:05.535Z,32.18
2019-01-17T09:16:14.624Z,32.28
2019-01-17T09:17:24.380Z,32.17
2019-01-17T09:18:34.227Z,32.26
2019-01-17T09:19:43.774Z,32.17
2019-01-17T09:20:53.320Z,32.17
2019-01-17T09:22:02.126Z,32.18
2019-01-17T09:23:11.106Z,32.18
2019-01-17T09:24:19.939Z,32.28
2019-01-17T09:25:29.759Z,32.28
2019-01-17T09:26:38.986Z,32.28
2019-01-17T09:27:48.080Z,32.09
2019-01-17T09:28:57.686Z,31.99
2019-01-17T09:30:07.230Z,32.18
2019-01-17T09:31:16.622Z,32.28
2019-01-17T09:32:26.021Z,32.28
2019-01-17T09:33:35.168Z,32.18
2019-01-17T09:34:44.516Z,32.28
2019-01-17T09:35:54.112Z,32.26
2019-01-17T09:37:03.227Z,32.09
2019-01-17T09:38:13.263Z,32.09
2019-01-17T09:39:22.911Z,32.09
2019-01-17T09:40:32.236Z,32.09
2019-01-17T09:41:41.575Z,32.09
2019-01-17T09:42:51.164Z,32.18
2019-01-17T09:44:00.240Z,32.28
2019-01-17T09:45:09.578Z,32.18
2019-01-17T09:46:18.697Z,32.09
2019-01-17T09:47:28.601Z,32.18
2019-01-17T09:48:37.880Z,32.09
2019-01-17T09:49:46.663Z,32.18
2019-01-17T09:50:56.004Z,32.18
2019-01-17T09:52:05.395Z,32.18
2019-01-17T09:53:14.547Z,32.18
2019-01-17T09:54:23.597Z,31.99
2019-01-17T09:55:33.175Z,31.99
2019-01-17T09:56:42.479Z,31.99
2019-01-17T09:57:51.619Z,32.09
2019-01-17T09:59:01.480Z,31.99
2019-01-17T10:00:11.203Z,31.99
2019-01-17T10:01:20.498Z,31.99
2019-01-17T10:02:30.045Z,32.09
2019-01-17T10:03:39.423Z,32.09
2019-01-17T10:04:48.954Z,32.18
2019-01-17T10:05:58.349Z,32.18
2019-01-17T10:07:07.870Z,32.18
2019-01-17T10:08:17.233Z,32.09
2019-01-17T10:09:26.323Z,32.09
2019-01-17T10:10:35.468Z,32.18
2019-01-17T10:11:44.874Z,32.18
2019-01-17T10:12:53.997Z,32.18
2019-01-17T10:14:03.635Z,32.09
2019-01-17T10:15:12.759Z,32.09
2019-01-17T10:16:22.368Z,31.99
2019-01-17T10:17:31.471Z,32.18
2019-01-17T10:18:41.003Z,32.18
2019-01-17T10:19:50.357Z,32.09
2019-01-17T10:21:00.166Z,32.28
2019-01-17T10:22:09.022Z,32.09
2019-01-17T10:23:18.372Z,32.18
2019-01-17T10:24:27.740Z,32.18
2019-01-17T10:25:37.309Z,32.18
2019-01-17T10:26:46.784Z,32.28
2019-01-17T10:27:55.849Z,32.18
2019-01-17T10:29:05.448Z,32.28
2019-01-17T10:30:14.803Z,32.47
2019-01-17T10:31:24.604Z,32.18
2019-01-17T10:32:33.860Z,32.38
2019-01-17T10:33:43.497Z,32.47
2019-01-17T10:34:52.855Z,32.47
2019-01-17T10:36:02.324Z,32.38
2019-01-17T10:37:11.657Z,32.26
2019-01-17T10:38:20.973Z,32.47
2019-01-17T10:39:29.815Z,32.56
2019-01-17T10:40:39.208Z,32.36
2019-01-17T10:41:48.050Z,32.36
2019-01-17T10:42:57.445Z,32.36
2019-01-17T10:44:06.776Z,32.65
2019-01-17T10:45:15.931Z,32.56
2019-01-17T10:46:25.912Z,32.56
2019-01-17T10:47:35.757Z,32.56
2019-01-17T10:48:45.159Z,32.56
2019-01-17T10:49:54.686Z,32.56
2019-01-17T10:51:04.101Z,32.46
2019-01-17T10:52:13.444Z,32.65
2019-01-17T10:53:22.839Z,32.65
2019-01-17T10:54:32.366Z,32.46
2019-01-17T10:55:41.278Z,32.56
2019-01-17T10:56:50.614Z,32.56
2019-01-17T10:57:59.749Z,32.65
2019-01-17T10:59:09.893Z,32.65
2019-01-17T11:00:19.268Z,32.65
2019-01-17T11:01:28.616Z,32.56
2019-01-17T11:02:37.736Z,32.65
2019-01-17T11:03:47.431Z,32.46
2019-01-17T11:04:56.998Z,32.26
2019-01-17T11:06:06.451Z,32.46
2019-01-17T11:07:15.788Z,32.36
2019-01-17T11:08:25.304Z,32.47
2019-01-17T11:09:35.260Z,32.57
2019-01-17T11:10:44.734Z,32.46
2019-01-17T11:11:54.313Z,32.38
2019-01-17T11:13:03.519Z,32.28
2019-01-17T11:14:12.659Z,32.09
2019-01-17T11:15:22.013Z,32.28
2019-01-17T11:16:31.857Z,32.18
2019-01-17T11:17:41.839Z,32.18
2019-01-17T11:18:51.180Z,32.09
2019-01-17T11:20:00.546Z,32.18
2019-01-17T11:21:09.492Z,32.28
2019-01-17T11:22:19.059Z,32.09
2019-01-17T11:23:28.733Z,31.99
2019-01-17T11:24:38.064Z,31.99
2019-01-17T11:25:48.222Z,31.99
2019-01-17T11:26:57.559Z,32.09
2019-01-17T11:28:07.900Z,31.9
2019-01-17T11:29:17.538Z,31.99
2019-01-17T11:30:26.919Z,31.9
2019-01-17T11:31:36.127Z,31.9
2019-01-17T11:32:45.206Z,31.99
2019-01-17T11:33:55.134Z,31.99
2019-01-17T11:35:04.440Z,32.09
2019-01-17T11:36:13.561Z,31.99
2019-01-17T11:37:23.165Z,31.99
2019-01-17T11:38:32.522Z,31.99
2019-01-17T11:39:42.113Z,32.09
2019-01-17T11:40:51.597Z,32.28
2019-01-17T11:42:00.766Z,32.09
2019-01-17T11:43:10.099Z,32.18
2019-01-17T11:44:20.080Z,32.18
2019-01-17T11:45:29.651Z,32.09
2019-01-17T11:46:39.296Z,31.99
2019-01-17T11:47:48.420Z,32.09
2019-01-17T11:48:57.452Z,32.09
2019-01-17T11:50:06.922Z,32.18
2019-01-17T11:51:16.515Z,32.28
2019-01-17T11:52:25.646Z,32.18
2019-01-17T11:53:35.272Z,32.28
2019-01-17T11:54:44.622Z,32.38
2019-01-17T11:55:54.348Z,32.28
2019-01-17T11:57:03.708Z,32.28
2019-01-17T11:58:13.101Z,32.28
2019-01-17T11:59:21.984Z,32.18
2019-01-17T12:00:31.354Z,32.47
2019-01-17T12:01:40.736Z,32.38
2019-01-17T12:02:50.366Z,32.47
2019-01-17T12:03:59.535Z,32.38
2019-01-17T12:05:08.851Z,32.38
2019-01-17T12:06:18.282Z,32.47
2019-01-17T12:07:27.705Z,32.46
2019-01-17T12:08:36.860Z,32.67
2019-01-17T12:09:46.239Z,32.67
2019-01-17T12:10:55.838Z,32.67
2019-01-17T12:12:05.191Z,32.57
2019-01-17T12:13:19.858Z,32.57
2019-01-17T12:14:29.600Z,32.56
2019-01-17T12:15:39.735Z,32.47
2019-01-17T12:16:48.584Z,32.46
2019-01-17T12:17:58.737Z,32.57
2019-01-17T12:19:08.327Z,32.75
2019-01-17T12:20:17.898Z,32.84
2019-01-17T12:21:27.032Z,32.94
2019-01-17T12:22:36.347Z,32.94
2019-01-17T12:23:45.197Z,32.46
2019-01-17T12:24:54.824Z,32.84
2019-01-17T12:26:04.478Z,32.75
2019-01-17T12:27:13.900Z,32.84
2019-01-17T12:28:23.565Z,32.46
2019-01-17T12:29:32.789Z,32.46
2019-01-17T12:30:41.932Z,32.65
2019-01-17T12:31:51.291Z,32.46
2019-01-17T12:33:00.596Z,32.46
2019-01-17T12:34:10.417Z,32.76
2019-01-17T12:35:19.471Z,32.65
2019-01-17T12:36:29.149Z,32.56
2019-01-17T12:37:38.056Z,32.57
2019-01-17T12:38:47.213Z,32.38
2019-01-17T12:39:56.546Z,32.47
2019-01-17T12:41:06.165Z,32.28
2019-01-17T12:42:15.133Z,32.18
2019-01-17T12:43:24.559Z,32.28
2019-01-17T12:44:34.259Z,32.28
2019-01-17T12:45:43.589Z,32.09
2019-01-17T12:46:53.141Z,32.18
2019-01-17T12:48:02.301Z,32.18
2019-01-17T12:49:11.997Z,32.18
2019-01-17T12:50:21.335Z,32.28
2019-01-17T12:51:30.271Z,32.09
2019-01-17T12:52:39.684Z,32.09
2019-01-17T12:53:49.326Z,32.09
2019-01-17T12:54:58.719Z,31.9
2019-01-17T12:56:08.256Z,31.9
2019-01-17T12:57:17.769Z,31.9
2019-01-17T12:58:27.261Z,32.01
2019-01-17T12:59:36.264Z,31.9
2019-01-17T13:00:45.822Z,31.9
2019-01-17T13:01:55.313Z,31.9
2019-01-17T13:03:04.755Z,31.91
2019-01-17T13:04:14.174Z,31.9
2019-01-17T13:05:23.902Z,31.99
2019-01-17T13:06:33.498Z,32.09
2019-01-17T13:07:42.872Z,31.99
2019-01-17T13:08:52.320Z,31.99
2019-01-17T13:10:01.413Z,32.18
2019-01-17T13:11:11.287Z,32.18
2019-01-17T13:12:20.644Z,32.18
2019-01-17T13:13:29.864Z,32.18
2019-01-17T13:14:39.485Z,32.09
2019-01-17T13:15:48.970Z,32.18
2019-01-17T13:16:58.380Z,32.09
2019-01-17T13:18:07.489Z,32.18
2019-01-17T13:19:16.678Z,32.28
2019-01-17T13:20:25.480Z,32.18
2019-01-17T13:21:35.080Z,32.28
2019-01-17T13:22:45.520Z,32.18
2019-01-17T13:23:54.714Z,32.18
2019-01-17T13:25:04.208Z,32.47
2019-01-17T13:26:13.115Z,32.28
2019-01-17T13:27:22.685Z,32.38
2019-01-17T13:28:31.803Z,32.47
2019-01-17T13:29:41.144Z,32.47
2019-01-17T13:30:50.489Z,32.47
2019-01-17T13:31:59.615Z,32.76
2019-01-17T13:33:09.217Z,32.38
2019-01-17T13:34:18.745Z,32.47
2019-01-17T13:35:28.033Z,32.38
2019-01-17T13:36:42.710Z,32.47
2019-01-17T13:37:52.192Z,32.47
2019-01-17T13:39:01.075Z,32.57
2019-01-17T13:40:10.592Z,32.57
2019-01-17T13:41:20.241Z,32.57
2019-01-17T13:42:29.341Z,32.57
2019-01-17T13:43:38.698Z,32.47
2019-01-17T13:44:48.012Z,32.57
2019-01-17T13:45:57.845Z,32.47
2019-01-17T13:47:06.664Z,32.47
2019-01-17T13:48:15.520Z,32.95
2019-01-17T13:49:25.113Z,32.67
2019-01-17T13:50:34.692Z,32.67
2019-01-17T13:51:44.029Z,32.86
2019-01-17T13:52:53.188Z,32.86
2019-01-17T13:54:02.198Z,32.95
2019-01-17T13:55:11.838Z,33.15
2019-01-17T13:56:21.371Z,33.05
2019-01-17T13:57:31.512Z,33.15
2019-01-17T13:58:40.581Z,32.67
2019-01-17T13:59:50.246Z,33.03
2019-01-17T14:00:59.781Z,33.23
2019-01-17T14:02:09.120Z,32.86
2019-01-17T14:03:18.655Z,32.47
2019-01-17T14:04:27.973Z,32.94
2019-01-17T14:05:37.292Z,32.84
2019-01-17T14:06:47.549Z,32.57
2019-01-17T14:07:56.871Z,32.57
2019-01-17T14:09:05.901Z,32.67
2019-01-17T14:10:15.214Z,32.76
2019-01-17T14:11:24.986Z,32.38
2019-01-17T14:12:34.178Z,32.38
2019-01-17T14:13:43.603Z,32.47
2019-01-17T14:14:52.887Z,32.47
2019-01-17T14:16:02.510Z,32.28
2019-01-17T14:17:12.096Z,32.38
2019-01-17T14:18:27.648Z,32.09
2019-01-17T14:19:37.234Z,32.18
2019-01-17T14:20:46.335Z,32.28
2019-01-17T14:21:55.955Z,32.09
2019-01-17T14:23:06.085Z,32.09
2019-01-17T14:24:15.973Z,32.28
2019-01-17T14:25:24.779Z,32.18
2019-01-17T14:26:34.126Z,31.99
2019-01-17T14:27:43.502Z,31.99
2019-01-17T14:28:52.911Z,32.01
2019-01-17T14:30:01.999Z,32.1
2019-01-17T14:31:11.818Z,31.99
2019-01-17T14:32:20.892Z,31.99
2019-01-17T14:33:30.264Z,32.18
2019-01-17T14:34:39.885Z,31.99
2019-01-17T14:35:49.488Z,32.2
2019-01-17T14:36:58.847Z,32.18
2019-01-17T14:38:07.942Z,32.18
2019-01-17T14:39:17.234Z,32.2
2019-01-17T14:40:26.628Z,32.18
2019-01-17T14:41:36.257Z,32.09
2019-01-17T14:42:45.770Z,32.18
2019-01-17T14:43:55.408Z,31.99
2019-01-17T14:45:04.532Z,32.28
2019-01-17T14:46:14.409Z,32.28
2019-01-17T14:47:23.697Z,32.28
2019-01-17T14:48:32.789Z,32.18
2019-01-17T14:49:42.378Z,32.18
2019-01-17T14:50:51.975Z,31.99
2019-01-17T14:52:01.316Z,32.28
2019-01-17T14:53:11.003Z,32.28
2019-01-17T14:54:20.137Z,32.28
2019-01-17T14:55:29.720Z,32.57
2019-01-17T14:56:38.890Z,32.57
2019-01-17T14:57:48.460Z,32.57
2019-01-17T14:58:57.491Z,32.38
2019-01-17T15:00:06.850Z,32.38
2019-01-17T15:01:16.486Z,32.67
2019-01-17T15:02:26.087Z,32.57